Agana Heights, Guam
Current Conditions -  °F | °C
As of 3:54 AM on Monday 22 Dec 2014 (Local Time) from PGUM Reporting Station
Scattered Clouds Scattered Clouds  
Wind Chill: 82°   Ceiling: Unl
Heat Index: 89°   Visibility: 10mi
Dew Point: 76°   Wind: 14mph
Humidity: 82%   Direction: 80°E
Pressure: 29.84"   Gusts: NA
Location:  13.47°N, 144.74°E
Report Text: PGUM 211754Z 08012KT 10SM FEW017 SCT038 SCT120 28/24 A2984 RMK AO2 SLP097 60000 T02780244 10283 20278 55008
Loading
Personal Weather Stations






























Interactive Weather Map New forecast layout! Learn more

10-Day Weather Forecast

Advertisements
Track Severe Weather on mobile